createdAt,value
2018-08-06T00:02:32.995Z,7.30
2018-08-06T00:07:26.236Z,6.70
2018-08-06T00:12:20.179Z,6.80
2018-08-06T00:17:13.323Z,6.80
2018-08-06T00:22:06.683Z,6.67
2018-08-06T00:26:59.674Z,6.83
2018-08-06T00:31:52.690Z,6.78
2018-08-06T00:36:46.025Z,6.75
2018-08-06T00:41:39.281Z,7.45
2018-08-06T00:46:32.330Z,6.00
2018-08-06T00:51:25.517Z,6.40
2018-08-06T00:56:18.557Z,7.12
2018-08-06T01:01:11.551Z,6.83
2018-08-06T01:06:04.986Z,6.87
2018-08-06T01:10:58.045Z,6.65
2018-08-06T01:15:51.170Z,6.53
2018-08-06T01:20:44.248Z,6.65
2018-08-06T01:25:37.387Z,7.00
2018-08-06T01:30:30.495Z,6.87
2018-08-06T01:35:23.398Z,6.72
2018-08-06T01:40:17.375Z,6.90
2018-08-06T01:45:13.056Z,6.72
2018-08-06T01:50:07.036Z,7.08
2018-08-06T01:54:59.982Z,6.65
2018-08-06T01:59:53.672Z,6.80
2018-08-06T02:04:46.645Z,7.05
2018-08-06T02:09:39.715Z,6.97
2018-08-06T02:14:33.078Z,6.33
2018-08-06T02:19:26.014Z,6.30
2018-08-06T02:24:18.993Z,6.83
2018-08-06T02:29:12.654Z,6.78
2018-08-06T02:34:05.751Z,7.05
2018-08-06T02:38:58.799Z,6.33
2018-08-06T02:43:51.864Z,6.37
2018-08-06T02:48:45.781Z,6.53
2018-08-06T02:53:39.367Z,6.40
2018-08-06T02:58:32.347Z,6.60
2018-08-06T03:03:25.408Z,6.85
2018-08-06T03:08:18.359Z,6.47
2018-08-06T03:13:11.330Z,6.42
2018-08-06T03:18:04.446Z,6.42
2018-08-06T03:22:57.496Z,6.33
2018-08-06T03:27:50.691Z,6.28
2018-08-06T03:32:47.842Z,6.40
2018-08-06T03:37:40.945Z,6.72
2018-08-06T03:42:34.065Z,6.35
2018-08-06T03:47:27.035Z,6.15
2018-08-06T03:52:20.014Z,6.58
2018-08-06T03:57:13.462Z,6.60
2018-08-06T04:02:06.577Z,6.40
2018-08-06T04:06:59.889Z,6.35
2018-08-06T04:11:52.968Z,6.05
2018-08-06T04:16:45.928Z,6.08
2018-08-06T04:21:39.426Z,6.42
2018-08-06T04:26:32.463Z,6.67
2018-08-06T04:31:25.399Z,5.72
2018-08-06T04:36:18.386Z,6.20
2018-08-06T04:41:11.716Z,5.90
2018-08-06T04:46:05.006Z,7.17
2018-08-06T04:50:58.598Z,6.33
2018-08-06T04:55:51.690Z,6.28
2018-08-06T05:00:44.888Z,6.20
2018-08-06T05:05:37.827Z,6.22
2018-08-06T05:10:30.762Z,6.33
2018-08-06T05:15:23.666Z,6.42
2018-08-06T05:20:16.664Z,5.60
2018-08-06T05:25:10.068Z,6.15
2018-08-06T05:30:03.584Z,6.40
2018-08-06T05:34:56.657Z,6.10
2018-08-06T05:39:50.106Z,5.67
2018-08-06T05:44:43.303Z,6.55
2018-08-06T05:49:36.406Z,5.75
2018-08-06T05:54:29.735Z,6.25
2018-08-06T05:59:22.833Z,5.80
2018-08-06T06:04:15.923Z,6.08
2018-08-06T06:09:10.182Z,6.58
2018-08-06T06:14:03.787Z,6.05
2018-08-06T06:18:56.754Z,6.17
2018-08-06T06:23:49.801Z,5.87
2018-08-06T06:28:43.648Z,6.00
2018-08-06T06:33:36.747Z,6.40
2018-08-06T06:38:30.766Z,6.17
2018-08-06T06:43:24.414Z,6.42
2018-08-06T06:48:17.309Z,6.30
2018-08-06T06:53:10.647Z,6.72
2018-08-06T06:58:04.020Z,6.50
2018-08-06T07:02:57.473Z,6.67
2018-08-06T07:07:50.591Z,6.55
2018-08-06T07:12:43.869Z,6.45
2018-08-06T07:17:37.238Z,5.85
2018-08-06T07:22:30.245Z,6.40
2018-08-06T07:27:23.715Z,5.53
2018-08-06T07:32:19.231Z,5.80
2018-08-06T07:37:12.182Z,5.33
2018-08-06T07:42:05.314Z,5.40
2018-08-06T07:47:00.032Z,4.97
2018-08-06T07:51:54.327Z,5.83
2018-08-06T07:56:47.573Z,5.33
2018-08-06T08:01:40.670Z,5.72
2018-08-06T08:06:33.801Z,5.17
2018-08-06T08:11:27.285Z,5.65
2018-08-06T08:16:20.968Z,5.40
2018-08-06T08:21:14.187Z,5.50
2018-08-06T08:26:08.270Z,5.05
2018-08-06T08:31:01.689Z,6.22
2018-08-06T08:35:54.644Z,11.12
2018-08-06T08:40:47.643Z,9.88
2018-08-06T08:45:40.865Z,5.12
2018-08-06T08:50:33.942Z,4.42
2018-08-06T08:55:27.166Z,5.30
2018-08-06T09:00:22.149Z,5.22
2018-08-06T09:05:15.881Z,4.65
2018-08-06T09:10:10.738Z,5.12
2018-08-06T09:15:04.802Z,4.85
2018-08-06T09:19:58.883Z,4.90
2018-08-06T09:24:52.376Z,5.03
2018-08-06T09:29:45.491Z,5.12
2018-08-06T09:34:38.590Z,4.80
2018-08-06T09:39:31.556Z,5.00
2018-08-06T09:44:24.533Z,4.80
2018-08-06T09:49:17.614Z,5.20
2018-08-06T09:54:10.663Z,5.30
2018-08-06T09:59:03.716Z,4.70
2018-08-06T10:03:57.956Z,4.95
2018-08-06T10:08:51.675Z,4.70
2018-08-06T10:13:44.779Z,4.70
2018-08-06T10:18:38.028Z,4.97
2018-08-06T10:23:31.003Z,5.00
2018-08-06T10:28:24.794Z,4.95
2018-08-06T10:33:17.755Z,4.97
2018-08-06T10:38:10.850Z,5.08
2018-08-06T10:43:04.005Z,5.03
2018-08-06T10:47:57.005Z,4.87
2018-08-06T10:52:50.086Z,5.47
2018-08-06T10:57:44.191Z,4.90
2018-08-06T11:02:37.324Z,5.58
2018-08-06T11:07:30.917Z,5.35
2018-08-06T11:12:24.069Z,5.25
2018-08-06T11:17:17.222Z,5.35
2018-08-06T11:22:10.637Z,5.12
2018-08-06T11:27:03.797Z,4.95
2018-08-06T11:31:56.839Z,4.75
2018-08-06T11:36:49.900Z,5.25
2018-08-06T11:41:43.795Z,5.20
2018-08-06T11:46:36.942Z,5.67
2018-08-06T11:51:29.986Z,5.60
2018-08-06T11:56:23.103Z,5.80
2018-08-06T12:01:15.995Z,5.78
2018-08-06T12:06:09.084Z,5.95
2018-08-06T12:11:02.027Z,6.15
2018-08-06T12:15:55.102Z,5.87
2018-08-06T12:20:48.521Z,6.37
2018-08-06T12:25:41.696Z,5.83
2018-08-06T12:30:34.736Z,5.87
2018-08-06T12:35:27.838Z,6.05
2018-08-06T12:40:22.115Z,6.50
2018-08-06T12:45:15.817Z,6.15
2018-08-06T12:50:09.991Z,6.47
2018-08-06T12:55:03.426Z,6.00
2018-08-06T12:59:56.429Z,6.10
2018-08-06T13:04:49.466Z,6.42
2018-08-06T13:09:42.451Z,5.97
2018-08-06T13:14:36.044Z,5.85
2018-08-06T13:19:29.041Z,5.62
2018-08-06T13:24:22.022Z,6.22
2018-08-06T13:29:15.957Z,5.80
2018-08-06T13:34:08.906Z,6.25
2018-08-06T13:39:01.983Z,6.47
2018-08-06T13:43:55.035Z,6.55
2018-08-06T13:48:48.779Z,5.65
2018-08-06T13:53:42.099Z,5.70
2018-08-06T13:58:35.045Z,5.62
2018-08-06T14:03:28.188Z,5.72
2018-08-06T14:08:21.856Z,6.03
2018-08-06T14:13:14.916Z,5.75
2018-08-06T14:18:08.092Z,6.12
2018-08-06T14:23:01.256Z,5.72
2018-08-06T14:27:54.307Z,6.17
2018-08-06T14:32:47.866Z,5.80
2018-08-06T14:37:40.941Z,5.87
2018-08-06T14:42:34.107Z,6.10
2018-08-06T14:47:27.104Z,6.08
2018-08-06T14:52:20.108Z,5.47
2018-08-06T14:57:13.606Z,5.60
2018-08-06T15:02:06.608Z,5.65
2018-08-06T15:06:59.728Z,5.78
2018-08-06T15:11:52.915Z,5.83
2018-08-06T15:16:45.963Z,6.00
2018-08-06T15:21:39.152Z,5.20
2018-08-06T15:26:32.278Z,5.90
2018-08-06T15:31:25.721Z,5.70
2018-08-06T15:36:19.721Z,5.70
2018-08-06T15:41:12.831Z,5.42
2018-08-06T15:46:05.789Z,5.70
2018-08-06T15:50:58.735Z,6.05
2018-08-06T15:55:52.032Z,5.72
2018-08-06T16:00:45.250Z,5.90
2018-08-06T16:05:38.595Z,5.80
2018-08-06T16:10:31.995Z,5.53
2018-08-06T16:15:25.127Z,5.83
2018-08-06T16:20:18.682Z,5.85
2018-08-06T16:25:13.461Z,5.70
2018-08-06T16:30:11.995Z,6.35
2018-08-06T16:35:05.776Z,6.22
2018-08-06T16:39:58.860Z,5.78
2018-08-06T16:44:53.430Z,6.10
2018-08-06T16:49:46.686Z,6.50
2018-08-06T16:54:40.105Z,6.35
2018-08-06T16:59:33.788Z,6.50
2018-08-06T17:04:27.347Z,6.37
2018-08-06T17:09:20.467Z,6.10
2018-08-06T17:14:13.794Z,6.30
2018-08-06T17:19:06.811Z,6.53
2018-08-06T17:24:00.200Z,8.40
2018-08-06T17:28:53.184Z,6.85
2018-08-06T17:33:46.367Z,6.60
2018-08-06T17:38:39.813Z,6.70
2018-08-06T17:43:34.000Z,6.55
2018-08-06T17:48:27.218Z,6.67
2018-08-06T17:53:20.658Z,7.95
2018-08-06T17:58:13.714Z,6.85
2018-08-06T18:03:06.968Z,7.70
2018-08-06T18:08:00.206Z,7.50
2018-08-06T18:12:53.104Z,7.25
2018-08-06T18:17:46.100Z,7.55
2018-08-06T18:22:39.056Z,7.45
2018-08-06T18:27:32.316Z,7.03
2018-08-06T18:32:26.070Z,7.10
2018-08-06T18:37:19.196Z,7.30
2018-08-06T18:42:12.751Z,7.67
2018-08-06T18:47:06.392Z,7.45
2018-08-06T18:51:59.609Z,7.97
2018-08-06T18:56:52.714Z,7.10
2018-08-06T19:01:45.887Z,7.55
2018-08-06T19:06:39.538Z,7.62
2018-08-06T19:11:32.767Z,7.58
2018-08-06T19:16:26.734Z,7.75
2018-08-06T19:21:19.755Z,7.50
2018-08-06T19:26:12.807Z,7.17
2018-08-06T19:31:11.177Z,7.12
2018-08-06T19:36:04.419Z,7.42
2018-08-06T19:40:57.420Z,7.28
2018-08-06T19:45:50.523Z,7.53
2018-08-06T19:50:44.446Z,7.28
2018-08-06T19:55:43.023Z,7.90
2018-08-06T20:00:38.497Z,7.33
2018-08-06T20:05:31.588Z,7.42
2018-08-06T20:10:24.684Z,7.25
2018-08-06T20:15:19.681Z,7.65
2018-08-06T20:20:13.272Z,7.55
2018-08-06T20:25:08.899Z,6.95
2018-08-06T20:30:01.967Z,7.45
2018-08-06T20:34:55.925Z,7.50
2018-08-06T20:39:49.461Z,10.13
2018-08-06T20:44:42.579Z,6.83
2018-08-06T20:49:35.637Z,7.35
2018-08-06T20:54:28.605Z,7.75
2018-08-06T20:59:21.536Z,7.03
2018-08-06T21:04:14.739Z,7.00
2018-08-06T21:09:09.242Z,7.40
2018-08-06T21:14:02.326Z,7.60
2018-08-06T21:18:55.361Z,7.35
2018-08-06T21:23:48.383Z,7.33
2018-08-06T21:28:41.495Z,7.17
2018-08-06T21:33:34.616Z,7.72
2018-08-06T21:38:27.630Z,7.10
2018-08-06T21:43:20.749Z,7.30
2018-08-06T21:48:13.818Z,7.20
2018-08-06T21:53:07.033Z,6.72
2018-08-06T21:58:06.918Z,6.97
2018-08-06T22:03:00.087Z,6.75
2018-08-06T22:07:53.019Z,6.60
2018-08-06T22:12:45.998Z,7.40
2018-08-06T22:17:38.967Z,7.15
2018-08-06T22:22:32.144Z,7.20
2018-08-06T22:27:25.263Z,7.62
2018-08-06T22:32:18.360Z,6.92
2018-08-06T22:37:11.354Z,6.83
2018-08-06T22:42:04.301Z,6.22
2018-08-06T22:46:57.371Z,6.55
2018-08-06T22:51:50.459Z,6.92
2018-08-06T22:56:43.555Z,7.00
2018-08-06T23:01:36.524Z,7.30
2018-08-06T23:06:30.558Z,7.35
2018-08-06T23:11:23.574Z,7.15
2018-08-06T23:16:16.682Z,6.72
2018-08-06T23:21:10.666Z,7.60
2018-08-06T23:26:07.619Z,6.92
2018-08-06T23:31:00.730Z,7.08
2018-08-06T23:35:53.864Z,7.15
2018-08-06T23:40:47.484Z,6.80
2018-08-06T23:45:40.490Z,7.20
2018-08-06T23:50:34.305Z,7.35
2018-08-06T23:55:27.471Z,7.30
